Time;durP1;ratioP1;P1;durP2;ratioP2;P2;SDS_P1;SDS_P2;PMS_P1;PMS_P2;Temp;Humidity;BMP_temperature;BMP_pressure;BME280_temperature;BME280_humidity;BME280_pressure;Samples;Min_cycle;Max_cycle;Signal;HPM_P1;HPM_P2
2022/03/27 00:00:00;;;;;;;19.10;15.77;;;7.80;82.50;;;;;;5049019;28;20679;-81
2022/03/27 00:02:28;;;;;;;19.90;16.07;;;7.70;83.40;;;;;;5052268;28;20639;-81
2022/03/27 00:04:55;;;;;;;22.50;17.17;;;7.70;84.00;;;;;;5055202;28;21038;-81
2022/03/27 00:07:22;;;;;;;16.33;14.70;;;7.60;84.50;;;;;;5049985;28;20631;-81
2022/03/27 00:09:48;;;;;;;16.43;14.73;;;7.70;84.60;;;;;;5053304;28;20651;-81
2022/03/27 00:12:15;;;;;;;20.30;15.90;;;7.50;85.60;;;;;;5052622;28;20618;-81
2022/03/27 00:14:42;;;;;;;16.87;15.17;;;7.70;88.50;;;;;;5051899;28;20630;-81
2022/03/27 00:17:08;;;;;;;17.30;15.53;;;7.40;88.30;;;;;;5048746;28;20984;-81
2022/03/27 00:19:36;;;;;;;25.97;16.23;;;7.70;88.90;;;;;;5051254;28;20686;-81
2022/03/27 00:22:05;;;;;;;18.70;16.43;;;7.40;88.80;;;;;;5052830;28;20629;-81
2022/03/27 00:24:32;;;;;;;20.37;16.23;;;7.90;89.50;;;;;;5047427;28;20996;-81
2022/03/27 00:26:58;;;;;;;24.37;16.70;;;7.90;89.30;;;;;;5050584;28;20621;-81
2022/03/27 00:29:25;;;;;;;17.87;15.97;;;7.50;89.10;;;;;;5050125;28;20638;-81
2022/03/27 00:31:52;;;;;;;20.30;16.07;;;7.40;90.30;;;;;;5055989;28;20634;-81
2022/03/27 00:34:21;;;;;;;20.67;16.43;;;7.40;90.80;;;;;;5055109;28;20638;-81
2022/03/27 00:36:49;;;;;;;19.10;15.33;;;7.80;90.90;;;;;;5055003;28;20665;-81
2022/03/27 00:39:16;;;;;;;17.07;15.03;;;7.70;91.10;;;;;;5053970;28;20953;-81
2022/03/27 00:41:44;;;;;;;24.30;16.47;;;7.60;91.00;;;;;;5055035;28;21006;-81
2022/03/27 00:44:12;;;;;;;22.40;16.90;;;7.30;91.00;;;;;;5055571;28;20634;-81
2022/03/27 00:46:39;;;;;;;23.90;18.10;;;7.30;91.50;;;;;;5058994;28;20629;-82
2022/03/27 00:49:05;;;;;;;24.27;16.40;;;7.40;92.30;;;;;;5058610;28;20609;-81
2022/03/27 00:51:32;;;;;;;16.77;14.90;;;7.40;92.70;;;;;;5058355;28;20648;-81
2022/03/27 00:54:00;;;;;;;17.80;16.03;;;7.10;92.90;;;;;;5050755;28;20640;-81
2022/03/27 00:56:27;;;;;;;20.10;16.40;;;7.70;93.80;;;;;;5052649;28;20619;-81
2022/03/27 00:58:54;;;;;;;21.70;17.17;;;7.10;94.20;;;;;;5053306;28;20633;-79
2022/03/27 01:01:24;;;;;;;18.60;16.60;;;7.20;94.70;;;;;;5057825;28;21052;-81
2022/03/27 01:03:53;;;;;;;26.47;17.93;;;6.90;94.90;;;;;;5054237;28;20720;-80
2022/03/27 01:06:29;;;;;;;18.30;16.37;;;7.40;95.40;;;;;;5048743;28;20630;-80
2022/03/27 01:11:41;;;;;;;18.37;16.43;;;7.20;96.50;;;;;;5057352;28;20568;-80
2022/03/27 01:14:08;;;;;;;20.50;16.67;;;6.70;96.60;;;;;;5054553;28;20617;-80
2022/03/27 01:16:40;;;;;;;19.30;15.00;;;7.20;97.50;;;;;;5055916;28;21008;-80
2022/03/27 01:19:08;;;;;;;20.00;15.10;;;7.00;98.30;;;;;;5054581;28;20650;-81
2022/03/27 01:21:38;;;;;;;20.87;15.53;;;6.50;99.00;;;;;;5054477;28;20652;-81
2022/03/27 01:24:07;;;;;;;18.00;15.80;;;6.80;98.90;;;;;;5051575;28;20661;-81
2022/03/27 01:26:34;;;;;;;18.27;16.37;;;6.80;98.80;;;;;;5043651;28;20624;-81
2022/03/27 01:29:01;;;;;;;17.40;15.70;;;7.00;99.30;;;;;;5048368;28;20642;-81
2022/03/27 01:31:28;;;;;;;26.10;18.43;;;6.70;99.90;;;;;;5054859;28;20656;-81
2022/03/27 01:33:55;;;;;;;18.60;16.30;;;6.70;99.90;;;;;;5047640;28;21002;-81
2022/03/27 01:36:23;;;;;;;20.33;16.40;;;6.20;99.90;;;;;;5046129;28;20628;-81
2022/03/27 01:38:53;;;;;;;21.50;17.67;;;6.30;99.90;;;;;;5051449;28;20613;-81
2022/03/27 01:41:20;;;;;;;24.40;18.07;;;6.60;99.90;;;;;;5049270;28;20648;-81
2022/03/27 01:43:47;;;;;;;19.97;16.00;;;6.20;99.90;;;;;;5050814;28;20635;-81
2022/03/27 01:46:14;;;;;;;20.90;18.20;;;6.70;99.90;;;;;;5054086;28;20632;-81
2022/03/27 01:48:41;;;;;;;21.97;16.40;;;6.60;99.90;;;;;;5052885;28;20691;-81
2022/03/27 01:51:08;;;;;;;20.37;18.17;;;6.20;99.90;;;;;;5054747;28;20650;-81
2022/03/27 01:53:37;;;;;;;22.77;18.43;;;5.80;99.90;;;;;;5056926;28;20621;-81
2022/03/27 01:56:07;;;;;;;23.33;18.13;;;6.10;99.90;;;;;;5056119;28;20889;-81
2022/03/27 01:58:36;;;;;;;22.63;18.93;;;6.20;99.90;;;;;;5057820;28;20632;-81
2022/03/27 02:01:03;;;;;;;24.53;18.60;;;6.50;99.90;;;;;;5048157;28;20677;-81
2022/03/27 02:03:30;;;;;;;23.20;19.07;;;6.50;99.90;;;;;;5054247;28;20633;-81
2022/03/27 02:05:57;;;;;;;20.60;18.60;;;5.90;99.90;;;;;;5055644;28;20637;-81
2022/03/27 02:08:24;;;;;;;21.80;19.57;;;5.80;99.90;;;;;;5053121;28;20614;-80
2022/03/27 02:10:51;;;;;;;21.43;18.10;;;6.30;99.90;;;;;;5055236;28;20737;-81
2022/03/27 02:13:19;;;;;;;20.87;18.33;;;6.20;99.90;;;;;;5057208;28;20603;-80
2022/03/27 02:15:47;;;;;;;19.87;17.77;;;6.00;99.90;;;;;;5054122;28;20628;-80
2022/03/27 02:18:14;;;;;;;20.03;18.00;;;6.10;99.90;;;;;;5052525;28;20634;-81
2022/03/27 02:20:41;;;;;;;21.37;18.40;;;6.20;99.90;;;;;;5055936;28;21264;-81
2022/03/27 02:23:08;;;;;;;21.03;18.70;;;6.10;99.90;;;;;;5051074;28;20637;-81
2022/03/27 02:25:35;;;;;;;25.53;18.07;;;6.00;99.90;;;;;;5054772;28;20991;-81
2022/03/27 02:28:03;;;;;;;20.60;18.50;;;6.20;99.90;;;;;;5055305;28;20636;-81
2022/03/27 02:30:31;;;;;;;22.30;16.77;;;5.90;99.90;;;;;;5053893;28;20655;-81
2022/03/27 02:32:58;;;;;;;21.63;18.33;;;6.00;99.90;;;;;;5056517;28;20625;-80
2022/03/27 02:35:25;;;;;;;19.47;17.30;;;5.40;99.90;;;;;;5047963;28;20628;-80
2022/03/27 02:37:52;;;;;;;19.60;17.70;;;5.90;99.90;;;;;;5047380;28;20987;-81
2022/03/27 02:40:19;;;;;;;20.77;18.57;;;6.10;99.90;;;;;;5046978;28;20684;-81
2022/03/27 02:42:46;;;;;;;21.67;17.13;;;5.70;99.90;;;;;;5049722;28;20634;-80
2022/03/27 02:45:12;;;;;;;19.60;17.53;;;5.80;99.90;;;;;;5047982;28;20630;-81
2022/03/27 02:47:40;;;;;;;20.83;18.00;;;5.40;99.90;;;;;;5044839;28;20641;-80
2022/03/27 02:50:08;;;;;;;20.43;17.63;;;5.90;99.90;;;;;;5049070;28;20656;-81
2022/03/27 02:52:34;;;;;;;23.40;18.80;;;5.90;99.90;;;;;;5048020;28;21058;-81
2022/03/27 02:55:01;;;;;;;21.20;17.87;;;5.40;99.90;;;;;;5047464;28;20641;-81
2022/03/27 02:57:28;;;;;;;19.50;17.10;;;5.70;99.90;;;;;;5045861;28;21257;-81
2022/03/27 02:59:55;;;;;;;21.87;18.30;;;5.80;99.90;;;;;;5045535;28;20716;-81
2022/03/27 03:02:22;;;;;;;19.87;17.77;;;5.70;99.90;;;;;;5045436;28;20733;-82
2022/03/27 03:04:51;;;;;;;21.17;17.70;;;5.70;99.90;;;;;;5046879;28;20640;-81
2022/03/27 03:07:18;;;;;;;21.97;19.57;;;5.40;99.90;;;;;;5047153;28;20660;-81
2022/03/27 03:09:45;;;;;;;20.77;18.53;;;5.60;99.90;;;;;;5047178;28;21006;-81
2022/03/27 03:12:12;;;;;;;20.10;17.93;;;5.40;99.90;;;;;;5045815;28;20619;-81
2022/03/27 03:14:39;;;;;;;24.20;18.80;;;5.30;99.90;;;;;;5043393;28;20644;-81
2022/03/27 03:17:08;;;;;;;19.57;17.07;;;5.50;99.90;;;;;;5048166;28;20637;-80
2022/03/27 03:19:35;;;;;;;20.50;18.40;;;5.60;99.90;;;;;;5046235;28;21239;-80
2022/03/27 03:22:04;;;;;;;23.33;18.23;;;5.40;99.90;;;;;;5046852;28;20638;-81
2022/03/27 03:24:31;;;;;;;20.93;18.83;;;5.30;99.90;;;;;;5046416;28;20633;-81
2022/03/27 03:26:58;;;;;;;23.10;19.30;;;5.30;99.90;;;;;;5044696;28;20632;-81
2022/03/27 03:29:25;;;;;;;22.07;19.87;;;5.60;99.90;;;;;;5046022;28;20644;-80
2022/03/27 03:31:51;;;;;;;27.83;18.93;;;5.40;99.90;;;;;;5047820;28;21145;-81
2022/03/27 03:34:18;;;;;;;25.23;18.20;;;5.00;99.90;;;;;;5047273;28;20946;-81
2022/03/27 03:36:45;;;;;;;21.00;18.77;;;5.60;99.90;;;;;;5048692;28;22508;-81
2022/03/27 03:39:14;;;;;;;22.50;19.83;;;5.30;99.90;;;;;;5046147;28;20641;-81
2022/03/27 03:41:40;;;;;;;25.90;19.60;;;5.40;99.90;;;;;;5046800;28;21030;-81
2022/03/27 03:44:08;;;;;;;21.63;19.27;;;5.30;99.90;;;;;;5046049;28;21004;-80
2022/03/27 03:46:34;;;;;;;23.73;19.20;;;5.10;99.90;;;;;;5052324;28;20658;-81
2022/03/27 03:49:01;;;;;;;22.17;19.23;;;5.50;99.90;;;;;;5048315;28;20634;-81
2022/03/27 03:51:28;;;;;;;24.07;20.27;;;5.10;99.90;;;;;;5050534;28;20660;-81
2022/03/27 03:53:54;;;;;;;23.23;20.93;;;5.20;99.90;;;;;;5045718;28;20973;-80
2022/03/27 03:56:22;;;;;;;23.50;20.00;;;4.80;99.90;;;;;;5046622;28;20636;-81
2022/03/27 03:58:49;;;;;;;23.53;20.83;;;5.30;99.90;;;;;;5046256;28;20637;-80
2022/03/27 04:01:16;;;;;;;28.17;20.33;;;5.30;99.90;;;;;;5044457;28;20680;-79
2022/03/27 04:03:42;;;;;;;22.83;18.67;;;4.90;99.90;;;;;;5047668;28;20630;-80
2022/03/27 04:06:09;;;;;;;21.27;18.97;;;5.10;99.90;;;;;;5036717;28;20665;-80
2022/03/27 04:08:36;;;;;;;23.27;20.93;;;5.20;99.90;;;;;;5041558;28;20638;-80
2022/03/27 04:11:03;;;;;;;23.90;21.00;;;4.70;99.90;;;;;;5043484;28;20642;-79
2022/03/27 04:13:31;;;;;;;24.03;21.53;;;5.00;99.90;;;;;;5047031;28;20638;-80
2022/03/27 04:15:58;;;;;;;23.37;20.30;;;4.90;99.90;;;;;;5048750;28;20640;-81
2022/03/27 04:18:25;;;;;;;22.23;19.90;;;4.90;99.90;;;;;;5045534;28;20636;-79
2022/03/27 04:20:52;;;;;;;23.00;18.90;;;4.90;99.90;;;;;;5049422;28;20685;-79
2022/03/27 04:23:19;;;;;;;22.17;19.43;;;4.70;99.90;;;;;;5041437;28;20719;-80
2022/03/27 04:25:46;;;;;;;22.93;20.60;;;4.90;99.90;;;;;;5047670;28;20628;-80
2022/03/27 04:28:12;;;;;;;21.80;19.60;;;4.30;99.90;;;;;;5046556;28;21312;-80
2022/03/27 04:30:41;;;;;;;31.37;20.97;;;4.90;99.90;;;;;;5045200;28;20645;-80
2022/03/27 04:33:08;;;;;;;30.27;22.80;;;4.80;99.90;;;;;;5047989;28;21208;-80
2022/03/27 04:35:35;;;;;;;23.10;19.60;;;5.00;99.90;;;;;;5045197;28;20633;-80
2022/03/27 04:38:02;;;;;;;22.83;20.40;;;4.70;99.90;;;;;;5045481;28;20737;-79
2022/03/27 04:40:29;;;;;;;23.10;20.60;;;4.80;99.90;;;;;;5049595;28;20685;-80
2022/03/27 04:42:55;;;;;;;23.47;21.07;;;4.50;99.90;;;;;;5048606;28;20635;-80
2022/03/27 04:45:22;;;;;;;24.33;21.73;;;4.90;99.90;;;;;;5043225;28;20986;-80
2022/03/27 04:47:50;;;;;;;23.13;19.27;;;4.70;99.90;;;;;;5045149;28;20639;-79
2022/03/27 04:50:17;;;;;;;27.07;18.87;;;4.70;99.90;;;;;;5044983;28;20659;-79
2022/03/27 04:52:44;;;;;;;24.50;22.00;;;4.70;99.90;;;;;;5047526;28;20635;-79
2022/03/27 04:55:11;;;;;;;27.73;21.70;;;4.30;99.90;;;;;;5047440;28;20671;-79
2022/03/27 04:57:39;;;;;;;25.63;22.90;;;4.40;99.90;;;;;;5046268;28;20647;-79
2022/03/27 05:00:10;;;;;;;23.10;20.67;;;4.00;99.90;;;;;;5047763;28;20656;-79
2022/03/27 05:02:37;;;;;;;21.97;19.60;;;4.50;99.90;;;;;;5045243;28;20625;-81
2022/03/27 05:05:06;;;;;;;23.60;19.60;;;4.30;99.90;;;;;;5048549;28;20617;-80
2022/03/27 05:07:34;;;;;;;23.60;21.13;;;4.40;99.90;;;;;;5047153;28;20636;-81
2022/03/27 05:10:00;;;;;;;24.67;21.73;;;3.90;99.90;;;;;;5044410;28;20823;-80
2022/03/27 05:12:27;;;;;;;22.53;20.07;;;4.40;99.90;;;;;;5048966;28;20643;-80
2022/03/27 05:14:54;;;;;;;23.00;20.53;;;4.20;99.90;;;;;;5050954;28;20632;-80
2022/03/27 05:17:21;;;;;;;22.10;20.00;;;3.70;99.90;;;;;;5039202;28;20629;-80
2022/03/27 05:19:48;;;;;;;24.53;20.27;;;4.00;99.90;;;;;;5049476;28;21269;-80
2022/03/27 05:22:16;;;;;;;21.60;19.30;;;4.00;99.90;;;;;;5049711;28;20717;-81
2022/03/27 05:24:43;;;;;;;26.00;19.73;;;4.10;99.90;;;;;;5048262;28;20635;-80
2022/03/27 05:27:10;;;;;;;22.20;19.90;;;3.80;99.90;;;;;;5048788;28;20636;-81
2022/03/27 05:29:36;;;;;;;23.43;20.93;;;4.20;99.90;;;;;;5049419;28;21145;-80
2022/03/27 05:32:04;;;;;;;24.57;21.83;;;4.10;99.90;;;;;;5048249;28;20988;-80
2022/03/27 05:34:31;;;;;;;23.80;21.50;;;4.20;99.90;;;;;;5050275;28;20634;-80
2022/03/27 05:36:58;;;;;;;25.40;22.00;;;4.10;99.90;;;;;;5049394;28;21018;-80
2022/03/27 05:39:26;;;;;;;23.70;21.17;;;4.20;99.90;;;;;;5050326;28;20632;-80
2022/03/27 05:41:53;;;;;;;24.77;21.80;;;4.10;99.90;;;;;;5048463;28;20655;-80
2022/03/27 05:44:19;;;;;;;27.13;22.30;;;3.80;99.90;;;;;;5050370;28;20649;-80
2022/03/27 05:46:46;;;;;;;25.63;20.83;;;4.30;99.90;;;;;;5050595;28;20641;-80
2022/03/27 05:49:13;;;;;;;22.87;20.67;;;4.00;99.90;;;;;;5047365;28;20634;-80
2022/03/27 05:51:40;;;;;;;26.17;21.93;;;4.10;99.90;;;;;;5049049;28;20631;-80
2022/03/27 05:54:06;;;;;;;25.57;21.17;;;4.10;99.90;;;;;;5048824;28;20638;-81
2022/03/27 05:56:34;;;;;;;24.63;22.00;;;4.40;99.90;;;;;;5051026;28;20620;-80
2022/03/27 05:59:01;;;;;;;23.97;21.57;;;4.40;99.90;;;;;;5049992;28;20647;-80
2022/03/27 06:01:28;;;;;;;26.03;22.80;;;4.30;99.90;;;;;;5055001;28;20685;-80
2022/03/27 06:03:55;;;;;;;26.00;23.00;;;4.50;99.90;;;;;;5051328;28;20640;-80
2022/03/27 06:06:21;;;;;;;23.97;21.53;;;4.30;99.90;;;;;;5051321;28;20640;-80
2022/03/27 06:08:48;;;;;;;25.97;20.83;;;4.50;99.90;;;;;;5049354;28;20626;-80
2022/03/27 06:11:15;;;;;;;23.70;21.20;;;4.40;99.90;;;;;;5048271;28;20665;-80
2022/03/27 06:13:43;;;;;;;25.20;21.60;;;4.30;99.90;;;;;;5040493;28;20624;-80
2022/03/27 06:16:09;;;;;;;24.37;21.93;;;4.80;99.90;;;;;;5049211;28;20642;-80
2022/03/27 06:18:36;;;;;;;23.33;20.90;;;4.70;99.90;;;;;;5049534;28;20629;-81
2022/03/27 06:21:03;;;;;;;22.67;20.50;;;4.70;99.90;;;;;;5048021;28;20665;-80
2022/03/27 06:23:30;;;;;;;26.33;22.07;;;4.50;99.90;;;;;;5044979;28;20641;-81
2022/03/27 06:25:57;;;;;;;24.00;20.40;;;4.50;99.90;;;;;;5049424;28;20995;-81
2022/03/27 06:28:23;;;;;;;26.77;22.60;;;4.70;99.90;;;;;;5050302;28;20641;-81
2022/03/27 06:30:52;;;;;;;23.57;21.23;;;4.90;99.90;;;;;;5048334;28;20664;-81
2022/03/27 06:33:18;;;;;;;24.37;21.87;;;5.00;99.90;;;;;;5046424;28;21340;-80
2022/03/27 06:35:45;;;;;;;24.30;21.70;;;4.90;99.90;;;;;;5049647;28;20903;-81
2022/03/27 06:38:12;;;;;;;23.37;20.93;;;5.10;99.90;;;;;;5044836;28;20648;-81
2022/03/27 06:40:38;;;;;;;23.97;21.57;;;5.30;99.90;;;;;;5050283;28;20875;-80
2022/03/27 06:43:06;;;;;;;25.73;20.70;;;4.70;99.90;;;;;;5050533;28;20751;-80
2022/03/27 06:45:33;;;;;;;24.60;22.10;;;5.50;99.90;;;;;;5050161;28;20651;-80
2022/03/27 06:48:01;;;;;;;23.23;20.73;;;5.20;99.90;;;;;;5047707;28;20651;-80
2022/03/27 06:50:28;;;;;;;23.20;20.83;;;5.00;99.90;;;;;;5046344;28;21236;-80
2022/03/27 06:52:55;;;;;;;23.53;21.00;;;5.50;99.90;;;;;;5048610;28;20630;-80
2022/03/27 06:55:22;;;;;;;23.43;20.60;;;5.60;99.90;;;;;;5047945;28;20641;-80
2022/03/27 06:57:49;;;;;;;26.03;22.20;;;5.40;99.90;;;;;;5046343;28;20706;-80
2022/03/27 07:03:02;;;;;;;23.43;21.20;;;6.30;99.90;;;;;;5047841;28;20598;-80
2022/03/27 07:05:29;;;;;;;24.37;21.97;;;6.40;99.90;;;;;;5046010;28;20642;-80
2022/03/27 07:07:56;;;;;;;23.70;21.30;;;6.60;99.90;;;;;;5046167;28;20633;-80
2022/03/27 07:10:23;;;;;;;23.23;20.73;;;6.20;99.90;;;;;;5042452;28;20661;-80
2022/03/27 07:12:50;;;;;;;26.73;23.60;;;6.70;99.90;;;;;;5046613;28;20723;-80
2022/03/27 07:15:17;;;;;;;23.13;20.83;;;7.10;99.90;;;;;;5046664;28;20680;-80
2022/03/27 07:17:45;;;;;;;24.43;21.80;;;7.20;99.90;;;;;;5048291;28;21000;-80
2022/03/27 07:20:17;;;;;;;22.97;20.60;;;7.30;99.90;;;;;;5048964;28;20634;-80
2022/03/27 07:22:44;;;;;;;23.87;21.37;;;6.80;99.90;;;;;;5045295;28;20660;-80
2022/03/27 07:25:10;;;;;;;23.43;20.87;;;7.00;99.90;;;;;;5049496;28;20695;-80
2022/03/27 07:27:38;;;;;;;23.70;21.33;;;7.30;99.90;;;;;;5045702;28;20625;-80
2022/03/27 07:30:06;;;;;;;22.93;20.57;;;7.30;99.90;;;;;;5045513;28;20700;-80
2022/03/27 07:32:33;;;;;;;25.97;20.73;;;8.10;99.90;;;;;;5040361;28;21163;-80
2022/03/27 07:34:59;;;;;;;23.37;20.80;;;7.70;99.40;;;;;;5046417;28;21156;-79
2022/03/27 07:37:32;;;;;;;26.63;23.87;;;8.00;99.40;;;;;;5046568;28;20631;-80
2022/03/27 07:40:00;;;;;;;28.77;20.53;;;8.20;98.70;;;;;;5044503;28;20697;-80
2022/03/27 07:42:26;;;;;;;30.07;26.90;;;8.30;98.30;;;;;;5047020;28;20662;-80
2022/03/27 07:44:53;;;;;;;26.60;23.90;;;8.80;98.10;;;;;;5045772;28;20971;-80
2022/03/27 07:47:20;;;;;;;23.60;21.33;;;8.60;97.40;;;;;;5048440;28;20637;-79
2022/03/27 07:49:47;;;;;;;22.43;20.20;;;8.60;96.90;;;;;;5049058;28;20650;-80
2022/03/27 07:52:13;;;;;;;21.70;19.60;;;9.00;96.80;;;;;;5047472;28;20634;-80
2022/03/27 07:54:43;;;;;;;23.30;20.80;;;8.80;96.20;;;;;;5048385;28;20668;-80
2022/03/27 07:57:10;;;;;;;23.03;19.03;;;9.10;96.10;;;;;;5036828;28;20632;-80
2022/03/27 07:59:37;;;;;;;24.90;21.07;;;9.60;96.00;;;;;;5047157;28;20747;-80
2022/03/27 08:02:04;;;;;;;24.50;19.20;;;9.80;96.10;;;;;;5042049;28;20661;-80
2022/03/27 08:04:31;;;;;;;22.10;19.80;;;9.90;95.90;;;;;;5048878;28;20669;-80
2022/03/27 08:06:58;;;;;;;24.67;19.50;;;10.10;95.20;;;;;;5047038;28;21160;-80
2022/03/27 08:09:25;;;;;;;22.13;19.83;;;10.30;94.70;;;;;;5045830;28;20998;-80
2022/03/27 08:11:55;;;;;;;23.27;20.13;;;10.20;94.30;;;;;;5048018;28;21216;-80
2022/03/27 08:14:22;;;;;;;24.27;18.37;;;10.60;94.20;;;;;;5046874;28;20630;-80
2022/03/27 08:16:49;;;;;;;25.20;20.03;;;10.70;93.90;;;;;;5049291;28;20736;-80
2022/03/27 08:19:15;;;;;;;26.83;19.90;;;11.00;93.60;;;;;;5048216;28;20626;-80
2022/03/27 08:21:43;;;;;;;22.77;20.40;;;11.10;93.30;;;;;;5040859;28;20658;-80
2022/03/27 08:24:09;;;;;;;22.67;20.20;;;11.30;93.10;;;;;;5044237;28;21571;-80
2022/03/27 08:29:22;;;;;;;22.10;18.37;;;11.50;92.50;;;;;;5044688;28;20724;-81
2022/03/27 08:31:49;;;;;;;23.43;19.47;;;11.70;92.30;;;;;;5048523;28;20698;-81
2022/03/27 08:34:17;;;;;;;23.33;20.37;;;11.80;92.10;;;;;;5048014;28;21192;-82
2022/03/27 08:36:44;;;;;;;20.90;18.00;;;11.90;91.60;;;;;;5049851;28;20629;-82
2022/03/27 08:39:11;;;;;;;24.80;18.57;;;12.10;91.40;;;;;;5043981;28;20636;-82
2022/03/27 08:41:43;;;;;;;21.73;17.70;;;12.30;91.20;;;;;;5039735;28;20669;-81
2022/03/27 08:44:12;;;;;;;24.63;21.80;;;12.40;91.10;;;;;;5046437;28;20637;-81
2022/03/27 08:46:41;;;;;;;24.57;18.40;;;12.60;90.80;;;;;;5048860;28;20642;-81
2022/03/27 08:49:11;;;;;;;23.33;17.87;;;12.70;90.70;;;;;;5050078;28;20630;-81
2022/03/27 08:51:46;;;;;;;19.40;16.43;;;12.90;91.10;;;;;;5056000;28;20622;-81
2022/03/27 08:54:15;;;;;;;19.73;17.50;;;13.10;91.00;;;;;;5052667;28;20986;-81
2022/03/27 08:57:00;;;;;;;18.00;15.20;;;13.20;90.70;;;;;;5050860;28;20632;-81
2022/03/27 08:59:28;;;;;;;21.97;16.80;;;13.40;90.70;;;;;;5049183;28;20640;-81
2022/03/27 09:01:58;;;;;;;20.50;16.60;;;13.60;90.10;;;;;;5052057;28;20669;-81
2022/03/27 09:04:25;;;;;;;17.60;14.67;;;13.70;89.90;;;;;;5051690;28;21220;-81
2022/03/27 09:06:52;;;;;;;16.63;12.57;;;13.90;89.30;;;;;;5050588;28;20629;-81
2022/03/27 09:09:19;;;;;;;16.70;13.40;;;14.00;88.90;;;;;;5049446;28;20630;-81
2022/03/27 09:11:46;;;;;;;13.40;11.53;;;14.20;87.90;;;;;;5049698;28;20645;-81
2022/03/27 09:14:16;;;;;;;17.23;12.40;;;14.40;87.50;;;;;;5051033;28;20629;-81
2022/03/27 09:17:03;;;;;;;14.17;12.47;;;14.70;87.00;;;;;;5051387;28;20637;-81
2022/03/27 09:19:36;;;;;;;15.30;12.07;;;14.90;85.40;;;;;;5048047;28;20630;-82
2022/03/27 09:22:13;;;;;;;18.70;12.73;;;15.10;84.90;;;;;;5049689;28;21254;-82
2022/03/27 09:24:40;;;;;;;14.67;11.50;;;15.20;84.10;;;;;;5048845;28;20961;-82
2022/03/27 09:27:07;;;;;;;13.30;11.97;;;15.40;83.70;;;;;;5051711;28;20779;-81
2022/03/27 09:29:57;;;;;;;17.50;12.60;;;15.50;83.00;;;;;;5042497;28;20653;-82
2022/03/27 09:32:30;;;;;;;14.53;11.67;;;15.70;82.70;;;;;;5049187;28;20647;-80
2022/03/27 09:35:04;;;;;;;19.67;11.60;;;15.80;81.40;;;;;;5046308;28;20632;-82
2022/03/27 09:37:37;;;;;;;14.47;11.47;;;15.90;81.00;;;;;;5051609;28;20633;-82
2022/03/27 09:40:05;;;;;;;18.37;12.00;;;16.10;81.30;;;;;;5039940;28;20650;-82
2022/03/27 09:42:32;;;;;;;18.13;13.53;;;16.20;80.20;;;;;;5048147;28;20665;-82
2022/03/27 09:45:15;;;;;;;12.47;10.30;;;16.30;78.80;;;;;;5052219;28;20641;-82
2022/03/27 09:47:45;;;;;;;17.07;12.33;;;16.40;79.10;;;;;;5048384;28;20970;-82
2022/03/27 09:50:31;;;;;;;15.13;13.40;;;16.50;78.50;;;;;;5048559;28;20756;-82
2022/03/27 09:53:18;;;;;;;16.80;12.73;;;16.60;76.80;;;;;;5046214;28;21076;-81
2022/03/27 09:55:45;;;;;;;15.20;13.40;;;16.70;77.20;;;;;;5048252;28;20618;-82
2022/03/27 09:58:12;;;;;;;15.73;12.17;;;16.80;76.70;;;;;;5047350;28;21397;-82
2022/03/27 10:00:39;;;;;;;21.40;13.67;;;16.90;74.90;;;;;;5048910;28;20710;-82
2022/03/27 10:03:11;;;;;;;16.20;12.40;;;17.00;75.60;;;;;;5048412;28;21289;-81
2022/03/27 10:05:38;;;;;;;18.50;11.70;;;17.20;75.20;;;;;;5046794;28;20668;-82
2022/03/27 10:08:06;;;;;;;16.50;13.50;;;17.40;74.80;;;;;;5047550;28;21164;-81
2022/03/27 10:10:33;;;;;;;18.03;12.40;;;17.50;73.30;;;;;;5046333;28;20676;-81
2022/03/27 10:13:00;;;;;;;14.07;12.53;;;17.80;72.10;;;;;;5048049;28;20625;-82
2022/03/27 10:15:28;;;;;;;17.67;12.40;;;18.00;71.30;;;;;;5047846;28;20626;-81
2022/03/27 10:17:57;;;;;;;16.70;13.03;;;18.20;71.10;;;;;;5048188;28;20634;-82
2022/03/27 10:20:29;;;;;;;14.70;11.47;;;18.40;69.40;;;;;;5048644;28;20696;-82
2022/03/27 10:23:03;;;;;;;12.57;11.27;;;18.70;69.90;;;;;;5048951;28;20669;-81
2022/03/27 10:25:39;;;;;;;16.30;12.10;;;18.90;69.00;;;;;;5047783;28;20617;-81
2022/03/27 10:28:07;;;;;;;18.10;12.87;;;19.20;67.70;;;;;;5041205;28;20698;-82
2022/03/27 10:30:35;;;;;;;17.83;12.43;;;19.40;66.70;;;;;;5046212;28;20650;-82
2022/03/27 10:33:02;;;;;;;16.87;12.60;;;19.70;65.60;;;;;;5047152;28;20628;-82
2022/03/27 10:35:51;;;;;;;16.30;12.10;;;19.80;62.80;;;;;;5049807;28;21234;-81
2022/03/27 10:38:25;;;;;;;15.83;12.17;;;20.00;62.20;;;;;;5046354;28;20632;-82
2022/03/27 10:41:08;;;;;;;12.80;11.20;;;20.20;61.90;;;;;;5048513;28;20656;-81
2022/03/27 10:43:43;;;;;;;18.33;12.40;;;20.50;61.10;;;;;;5047417;28;20653;-82
2022/03/27 10:46:15;;;;;;;14.80;12.53;;;20.70;59.90;;;;;;5047623;28;20622;-82
2022/03/27 10:48:44;;;;;;;14.73;12.80;;;21.00;59.60;;;;;;5046415;28;21172;-82
2022/03/27 10:51:31;;;;;;;16.13;12.67;;;21.00;59.10;;;;;;5049836;28;20657;-82
2022/03/27 10:54:02;;;;;;;14.50;12.23;;;21.30;58.10;;;;;;5046574;28;20942;-82
2022/03/27 10:56:34;;;;;;;19.07;11.77;;;21.60;56.50;;;;;;5047718;28;20645;-81
2022/03/27 10:59:11;;;;;;;17.10;11.10;;;21.70;56.30;;;;;;5043217;28;20630;-81
2022/03/27 11:01:40;;;;;;;14.80;11.57;;;22.00;54.40;;;;;;5047723;28;20867;-81
2022/03/27 11:04:09;;;;;;;14.23;11.93;;;22.20;53.50;;;;;;5047189;28;20670;-81
2022/03/27 11:06:39;;;;;;;13.27;10.97;;;22.50;52.30;;;;;;5045342;28;20638;-80
2022/03/27 11:09:10;;;;;;;15.63;11.23;;;22.70;51.40;;;;;;5042153;28;20634;-80
2022/03/27 11:12:05;;;;;;;13.57;11.80;;;22.80;50.90;;;;;;5040552;28;20624;-80
2022/03/27 11:14:58;;;;;;;12.70;10.63;;;23.10;50.90;;;;;;5047255;28;20630;-82
2022/03/27 11:17:52;;;;;;;15.47;12.67;;;23.50;49.80;;;;;;5045713;28;20625;-81
2022/03/27 11:20:47;;;;;;;13.67;10.90;;;23.70;48.70;;;;;;5044308;28;20657;-81
2022/03/27 11:23:25;;;;;;;12.40;9.40;;;24.00;49.10;;;;;;5044009;28;21285;-81
2022/03/27 11:25:52;;;;;;;12.87;10.30;;;24.10;47.70;;;;;;5047889;28;20622;-81
2022/03/27 11:28:21;;;;;;;17.57;11.87;;;24.10;46.70;;;;;;5044440;28;20645;-81
2022/03/27 11:31:20;;;;;;;13.57;12.07;;;24.30;46.60;;;;;;5047962;28;20646;-81
2022/03/27 11:34:18;;;;;;;11.90;10.43;;;24.00;46.10;;;;;;5046727;28;20644;-81
2022/03/27 11:36:48;;;;;;;13.40;11.03;;;23.90;46.10;;;;;;5045782;28;21091;-82
2022/03/27 11:39:33;;;;;;;13.87;11.40;;;24.10;46.40;;;;;;5048222;28;20655;-81
2022/03/27 11:42:27;;;;;;;14.70;11.23;;;24.30;45.20;;;;;;5045484;28;20606;-81
2022/03/27 11:45:16;;;;;;;16.13;12.60;;;24.60;44.30;;;;;;5047729;28;20630;-82
2022/03/27 11:47:45;;;;;;;12.77;10.80;;;24.80;43.20;;;;;;5049943;28;20621;-81
2022/03/27 11:50:24;;;;;;;15.50;9.80;;;25.00;43.40;;;;;;5046873;28;21271;-81
2022/03/27 11:52:51;;;;;;;11.20;9.33;;;25.50;43.20;;;;;;5045930;28;20649;-82
2022/03/27 11:55:19;;;;;;;10.90;9.80;;;26.10;41.80;;;;;;5045309;28;21020;-82
2022/03/27 11:57:51;;;;;;;14.00;10.70;;;26.70;42.00;;;;;;5045592;28;21172;-81
2022/03/27 12:00:30;;;;;;;12.87;11.50;;;27.00;40.90;;;;;;5047950;28;21006;-82
2022/03/27 12:02:59;;;;;;;12.47;11.17;;;27.10;38.70;;;;;;5045571;28;20696;-81
2022/03/27 12:05:36;;;;;;;14.70;11.07;;;26.90;37.80;;;;;;5051797;28;20997;-82
2022/03/27 12:08:04;;;;;;;11.00;10.00;;;27.00;37.20;;;;;;5025111;28;20633;-81
2022/03/27 12:10:41;;;;;;;11.57;10.37;;;27.10;37.10;;;;;;5049604;28;20658;-81
2022/03/27 12:13:08;;;;;;;14.07;10.87;;;27.70;37.20;;;;;;5046876;28;20640;-81
2022/03/27 12:15:37;;;;;;;10.23;9.20;;;28.00;36.30;;;;;;5046420;28;20626;-81
2022/03/27 12:18:04;;;;;;;11.30;10.20;;;28.20;34.50;;;;;;5040900;28;20630;-81
2022/03/27 12:20:41;;;;;;;12.60;9.80;;;28.00;34.30;;;;;;5045855;28;21022;-81
2022/03/27 12:23:22;;;;;;;10.83;9.70;;;27.50;34.30;;;;;;5050428;28;20658;-81
2022/03/27 12:31:52;;;;;;;11.47;10.47;;;28.70;34.10;;;;;;5052480;28;20635;-81
2022/03/27 12:34:19;;;;;;;12.43;10.77;;;28.90;33.20;;;;;;5051586;28;20982;-81
2022/03/27 12:37:09;;;;;;;12.43;11.17;;;29.30;33.30;;;;;;5051321;28;20966;-81
2022/03/27 12:39:36;;;;;;;13.80;12.57;;;29.30;32.70;;;;;;5049788;28;20649;-81
2022/03/27 12:42:06;;;;;;;12.03;10.93;;;29.70;33.10;;;;;;5052152;28;20629;-81
2022/03/27 12:44:52;;;;;;;12.53;11.23;;;30.20;32.70;;;;;;5043574;28;20675;-81
2022/03/27 12:47:19;;;;;;;11.63;10.43;;;30.00;31.40;;;;;;5044366;28;20627;-81
2022/03/27 12:49:50;;;;;;;11.23;10.03;;;30.30;31.40;;;;;;5043199;28;20665;-81
2022/03/27 12:52:17;;;;;;;11.57;10.47;;;30.60;30.40;;;;;;5050589;28;20984;-81
2022/03/27 12:55:07;;;;;;;11.57;10.20;;;30.40;30.90;;;;;;5050336;28;20625;-81
2022/03/27 12:57:53;;;;;;;11.70;10.20;;;30.50;30.00;;;;;;5039517;28;20641;-81